createdAt,value
2019-03-22T00:00:55.884Z,29.63
2019-03-22T00:03:25.432Z,33.77
2019-03-22T00:05:55.081Z,31.53
2019-03-22T00:08:25.227Z,35.00
2019-03-22T00:10:55.138Z,35.03
2019-03-22T00:13:24.702Z,34.03
2019-03-22T00:15:54.620Z,34.47
2019-03-22T00:18:24.206Z,35.80
2019-03-22T00:20:53.735Z,33.10
2019-03-22T00:23:23.321Z,33.80
2019-03-22T00:25:52.961Z,35.30
2019-03-22T00:28:22.819Z,36.70
2019-03-22T00:30:52.402Z,38.20
2019-03-22T00:33:21.965Z,38.53
2019-03-22T00:35:51.500Z,37.53
2019-03-22T00:38:21.170Z,37.90
2019-03-22T00:40:50.732Z,36.30
2019-03-22T00:43:20.294Z,35.03
2019-03-22T00:45:49.882Z,33.53
2019-03-22T00:48:19.443Z,36.37
2019-03-22T00:50:49.015Z,35.67
2019-03-22T00:53:18.972Z,38.07
2019-03-22T00:55:48.966Z,38.17
2019-03-22T00:58:19.135Z,37.20
2019-03-22T01:00:48.717Z,38.13
2019-03-22T01:03:18.260Z,37.33
2019-03-22T01:05:48.474Z,36.70
2019-03-22T01:08:18.394Z,38.33
2019-03-22T01:10:47.944Z,37.97
2019-03-22T01:13:17.511Z,37.23
2019-03-22T01:15:47.427Z,39.10
2019-03-22T01:18:17.012Z,39.70
2019-03-22T01:20:46.562Z,40.67
2019-03-22T01:23:16.124Z,37.97
2019-03-22T01:25:46.054Z,38.87
2019-03-22T01:28:15.606Z,38.13
2019-03-22T01:30:45.204Z,38.43
2019-03-22T01:33:15.088Z,41.53
2019-03-22T01:35:44.630Z,40.97
2019-03-22T01:38:14.210Z,40.73
2019-03-22T01:40:43.758Z,38.97
2019-03-22T01:43:13.298Z,42.57
2019-03-22T01:45:43.170Z,38.13
2019-03-22T01:48:13.140Z,43.73
2019-03-22T01:50:43.190Z,42.27
2019-03-22T01:53:12.787Z,38.93
2019-03-22T01:55:42.684Z,40.80
2019-03-22T01:58:12.272Z,40.23
2019-03-22T02:00:41.838Z,38.40
2019-03-22T02:03:11.417Z,39.50
2019-03-22T02:05:41.358Z,40.53
2019-03-22T02:08:10.944Z,40.27
2019-03-22T02:10:40.498Z,42.43
2019-03-22T02:13:10.060Z,40.70
2019-03-22T02:15:39.664Z,41.03
2019-03-22T02:18:09.244Z,42.67
2019-03-22T02:20:38.804Z,38.90
2019-03-22T02:23:08.728Z,40.30
2019-03-22T02:25:38.682Z,40.87
2019-03-22T02:28:08.529Z,39.70
2019-03-22T02:30:38.219Z,39.37
2019-03-22T02:33:07.783Z,39.77
2019-03-22T02:35:37.689Z,41.53
2019-03-22T02:38:07.285Z,40.13
2019-03-22T02:40:37.450Z,39.80
2019-03-22T02:43:07.036Z,40.60
2019-03-22T02:45:36.584Z,41.30
2019-03-22T02:48:06.518Z,39.80
2019-03-22T02:50:36.470Z,40.13
2019-03-22T02:53:06.025Z,41.03
2019-03-22T02:55:35.656Z,41.83
2019-03-22T02:58:19.639Z,39.90
2019-03-22T03:00:37.360Z,41.27
2019-03-22T03:03:06.944Z,40.17
2019-03-22T03:05:36.491Z,39.73
2019-03-22T03:08:06.041Z,38.23
2019-03-22T03:10:35.701Z,36.67
2019-03-22T03:13:07.118Z,40.37
2019-03-22T03:15:36.962Z,41.23
2019-03-22T03:18:06.511Z,41.00
2019-03-22T03:20:36.435Z,37.43
2019-03-22T03:23:06.663Z,42.60
2019-03-22T03:25:36.245Z,39.40
2019-03-22T03:28:06.299Z,41.10
2019-03-22T03:30:35.854Z,38.50
2019-03-22T03:33:05.438Z,39.83
2019-03-22T03:35:35.939Z,40.03
2019-03-22T03:38:05.960Z,40.23
2019-03-22T03:40:35.575Z,41.23
2019-03-22T03:43:05.221Z,36.70
2019-03-22T03:45:35.942Z,38.87
2019-03-22T03:48:07.310Z,41.03
2019-03-22T03:50:37.655Z,38.47
2019-03-22T03:53:08.060Z,39.33
2019-03-22T03:55:37.649Z,40.70
2019-03-22T03:58:07.536Z,39.33
2019-03-22T04:00:37.096Z,43.07
2019-03-22T04:03:07.262Z,41.70
2019-03-22T04:05:37.527Z,42.10
2019-03-22T04:08:07.590Z,40.10
2019-03-22T04:10:37.369Z,40.03
2019-03-22T04:13:06.955Z,42.90
2019-03-22T04:15:36.604Z,43.53
2019-03-22T04:18:06.143Z,41.90
2019-03-22T04:20:35.690Z,43.10
2019-03-22T04:23:05.291Z,41.50
2019-03-22T04:25:34.867Z,40.57
2019-03-22T04:28:04.857Z,40.80
2019-03-22T04:30:34.454Z,41.07
2019-03-22T04:33:06.595Z,43.40
2019-03-22T04:35:35.555Z,42.30
2019-03-22T04:38:05.523Z,41.40
2019-03-22T04:40:35.512Z,40.20
2019-03-22T04:43:05.082Z,38.93
2019-03-22T04:45:36.948Z,39.17
2019-03-22T04:48:23.310Z,39.77
2019-03-22T04:50:53.840Z,41.33
2019-03-22T04:53:24.343Z,42.10
2019-03-22T04:55:57.791Z,42.47
2019-03-22T04:58:29.047Z,39.07
2019-03-22T05:00:59.420Z,39.43
2019-03-22T05:03:29.429Z,38.30
2019-03-22T05:06:00.484Z,41.10
2019-03-22T05:08:32.466Z,39.17
2019-03-22T05:11:02.644Z,39.83
2019-03-22T05:13:33.518Z,38.17
2019-03-22T05:16:04.299Z,38.60
2019-03-22T05:18:34.910Z,40.47
2019-03-22T05:21:05.420Z,41.17
2019-03-22T05:23:35.174Z,39.20
2019-03-22T05:26:06.253Z,40.27
2019-03-22T05:28:35.922Z,39.67
2019-03-22T05:31:28.804Z,41.57
2019-03-22T05:33:58.708Z,42.47
2019-03-22T05:36:28.349Z,43.07
2019-03-22T05:38:57.941Z,40.63
2019-03-22T05:41:27.507Z,42.50
2019-03-22T05:43:57.347Z,44.53
2019-03-22T05:46:26.906Z,42.87
2019-03-22T05:48:56.552Z,41.17
2019-03-22T05:51:26.156Z,39.40
2019-03-22T05:53:55.754Z,42.73
2019-03-22T05:56:25.474Z,40.97
2019-03-22T05:58:55.080Z,38.70
2019-03-22T06:01:25.020Z,38.77
2019-03-22T06:03:54.989Z,39.67
2019-03-22T06:06:24.575Z,39.77
2019-03-22T06:08:54.918Z,40.70
2019-03-22T06:11:24.898Z,41.30
2019-03-22T06:13:54.569Z,39.07
2019-03-22T06:16:24.124Z,43.47
2019-03-22T06:18:53.706Z,40.60
2019-03-22T06:21:23.360Z,38.40
2019-03-22T06:23:53.340Z,41.63
2019-03-22T06:26:22.948Z,38.07
2019-03-22T06:28:52.505Z,38.30
2019-03-22T06:31:22.090Z,44.70
2019-03-22T06:33:51.963Z,46.20
2019-03-22T06:36:24.081Z,40.60
2019-03-22T06:38:52.850Z,43.77
2019-03-22T06:41:22.559Z,40.83
2019-03-22T06:43:52.065Z,38.67
2019-03-22T06:46:21.691Z,39.20
2019-03-22T06:48:51.255Z,44.03
2019-03-22T06:51:21.238Z,43.00
2019-03-22T06:53:50.798Z,40.37
2019-03-22T06:56:20.746Z,42.63
2019-03-22T06:58:50.339Z,43.57
2019-03-22T07:01:20.309Z,41.50
2019-03-22T07:03:50.239Z,41.97
2019-03-22T07:06:19.814Z,39.63
2019-03-22T07:08:49.437Z,43.00
2019-03-22T07:11:19.102Z,39.40
2019-03-22T07:13:48.800Z,38.47
2019-03-22T07:16:18.662Z,41.43
2019-03-22T07:18:48.272Z,40.23
2019-03-22T07:21:17.899Z,37.73
2019-03-22T07:23:48.427Z,38.90
2019-03-22T07:26:18.003Z,39.67
2019-03-22T07:28:47.855Z,41.70
2019-03-22T07:34:39.785Z,39.23
2019-03-22T07:37:09.772Z,38.70
2019-03-22T07:39:39.698Z,38.03
2019-03-22T07:42:09.601Z,37.83
2019-03-22T07:44:39.182Z,39.20
2019-03-22T07:47:09.485Z,36.67
2019-03-22T07:49:39.354Z,37.07
2019-03-22T07:52:08.938Z,39.00
2019-03-22T07:54:38.516Z,35.87
2019-03-22T07:57:08.434Z,37.60
2019-03-22T07:59:38.000Z,39.03
2019-03-22T08:02:07.856Z,36.03
2019-03-22T08:04:37.443Z,38.27
2019-03-22T08:07:07.379Z,36.67
2019-03-22T08:09:36.994Z,39.87
2019-03-22T08:12:06.559Z,40.77
2019-03-22T08:14:36.125Z,38.03
2019-03-22T08:17:05.775Z,41.00
2019-03-22T08:19:35.729Z,37.30
2019-03-22T08:22:05.349Z,39.03
2019-03-22T08:24:35.021Z,41.50
2019-03-22T08:27:04.933Z,40.30
2019-03-22T08:29:34.956Z,41.37
2019-03-22T08:32:04.594Z,42.30
2019-03-22T08:34:34.125Z,40.23
2019-03-22T08:37:03.747Z,40.70
2019-03-22T08:39:33.308Z,42.97
2019-03-22T08:42:02.879Z,44.23
2019-03-22T08:44:32.922Z,41.60
2019-03-22T08:47:02.841Z,41.70
2019-03-22T08:49:33.005Z,42.60
2019-03-22T08:52:03.033Z,44.50
2019-03-22T08:54:33.306Z,44.63
2019-03-22T08:57:02.924Z,41.60
2019-03-22T08:59:32.464Z,41.50
2019-03-22T09:02:02.120Z,41.13
2019-03-22T09:04:32.617Z,40.37
2019-03-22T09:07:02.209Z,40.03
2019-03-22T09:09:41.376Z,40.93
2019-03-22T09:12:03.857Z,39.00
2019-03-22T09:14:33.893Z,42.20
2019-03-22T09:17:03.574Z,42.13
2019-03-22T09:19:33.986Z,40.30
2019-03-22T09:22:03.576Z,39.07
2019-03-22T09:24:38.921Z,43.47
2019-03-22T09:27:05.198Z,42.10
2019-03-22T09:29:34.767Z,41.60
2019-03-22T09:32:04.395Z,41.77
2019-03-22T09:34:34.335Z,44.13
2019-03-22T09:37:03.970Z,43.73
2019-03-22T09:39:33.549Z,39.60
2019-03-22T09:42:03.278Z,39.63
2019-03-22T09:44:43.062Z,37.53
2019-03-22T09:47:04.817Z,36.53
2019-03-22T09:49:34.728Z,37.78
2019-03-22T09:52:04.560Z,36.58
2019-03-22T09:54:34.125Z,37.75
2019-03-22T09:57:03.724Z,37.85
2019-03-22T09:59:33.672Z,37.20
2019-03-22T10:02:03.261Z,37.55
2019-03-22T10:04:32.835Z,39.25
2019-03-22T10:07:02.721Z,38.05
2019-03-22T10:09:32.641Z,38.50
2019-03-22T10:12:02.596Z,37.63
2019-03-22T10:14:32.599Z,36.95
2019-03-22T10:17:02.510Z,39.23
2019-03-22T10:19:32.042Z,36.95
2019-03-22T10:22:01.614Z,36.58
2019-03-22T10:24:31.201Z,33.08
2019-03-22T10:27:00.740Z,36.77
2019-03-22T10:29:30.646Z,37.70
2019-03-22T10:32:00.260Z,35.45
2019-03-22T10:34:29.843Z,36.17
2019-03-22T10:36:59.381Z,37.03
2019-03-22T10:39:28.953Z,36.85
2019-03-22T10:41:58.637Z,37.15
2019-03-22T10:44:29.006Z,38.13
2019-03-22T10:46:58.555Z,36.45
2019-03-22T10:49:28.186Z,35.20
2019-03-22T10:51:58.287Z,36.00
2019-03-22T10:54:27.951Z,37.90
2019-03-22T10:56:57.829Z,37.08
2019-03-22T10:59:27.369Z,36.10
2019-03-22T11:02:03.304Z,33.35
2019-03-22T11:04:28.612Z,38.17
2019-03-22T11:06:58.915Z,33.38
2019-03-22T11:09:28.537Z,35.88
2019-03-22T11:11:58.445Z,32.40
2019-03-22T11:14:28.928Z,31.73
2019-03-22T11:17:01.660Z,31.65
2019-03-22T11:19:31.279Z,28.85
2019-03-22T11:22:01.243Z,30.20
2019-03-22T11:24:30.837Z,29.05
2019-03-22T11:27:00.837Z,30.72
2019-03-22T11:29:30.719Z,27.32
2019-03-22T11:32:12.087Z,27.13
2019-03-22T11:34:34.640Z,27.93
2019-03-22T11:37:04.554Z,28.80
2019-03-22T11:39:37.391Z,27.55
2019-03-22T11:42:07.030Z,27.60
2019-03-22T11:44:36.690Z,30.70
2019-03-22T11:47:07.401Z,30.52
2019-03-22T11:49:37.094Z,28.45
2019-03-22T11:52:14.574Z,27.00
2019-03-22T11:54:48.267Z,26.17
2019-03-22T11:57:17.852Z,27.22
2019-03-22T11:59:50.499Z,28.32
2019-03-22T12:02:22.495Z,27.00
2019-03-22T12:04:51.853Z,27.87
2019-03-22T12:07:21.840Z,24.87
2019-03-22T12:09:51.562Z,24.52
2019-03-22T12:12:21.183Z,26.40
2019-03-22T12:14:56.308Z,27.22
2019-03-22T12:17:26.026Z,24.70
2019-03-22T12:19:55.871Z,24.57
2019-03-22T12:22:25.892Z,23.77
2019-03-22T12:24:55.528Z,25.80
2019-03-22T12:27:25.455Z,24.75
2019-03-22T12:29:55.436Z,24.23
2019-03-22T12:32:32.144Z,25.23
2019-03-22T12:34:57.452Z,23.67
2019-03-22T12:37:29.022Z,25.00
2019-03-22T12:39:58.590Z,24.40
2019-03-22T12:42:28.284Z,23.77
2019-03-22T12:44:57.876Z,25.10
2019-03-22T12:47:27.552Z,24.23
2019-03-22T12:49:57.162Z,22.02
2019-03-22T12:52:27.197Z,23.30
2019-03-22T12:54:56.781Z,24.45
2019-03-22T12:57:28.250Z,23.12
2019-03-22T12:59:58.176Z,23.20
2019-03-22T13:02:28.530Z,21.60
2019-03-22T13:04:58.497Z,23.65
2019-03-22T13:07:28.106Z,22.37
2019-03-22T13:10:00.026Z,23.07
2019-03-22T13:12:29.606Z,21.77
2019-03-22T13:14:59.575Z,23.05
2019-03-22T13:17:29.548Z,21.73
2019-03-22T13:19:59.224Z,21.48
2019-03-22T13:22:28.831Z,23.92
2019-03-22T13:24:58.569Z,23.00
2019-03-22T13:27:28.201Z,22.87
2019-03-22T13:30:00.452Z,22.55
2019-03-22T13:32:30.210Z,22.95
2019-03-22T13:34:59.769Z,22.07
2019-03-22T13:37:29.385Z,22.20
2019-03-22T13:39:58.985Z,21.65
2019-03-22T13:42:28.631Z,21.97
2019-03-22T13:44:58.606Z,22.52
2019-03-22T13:47:28.594Z,21.93
2019-03-22T13:49:58.156Z,24.02
2019-03-22T13:52:28.320Z,22.07
2019-03-22T13:54:57.944Z,20.92
2019-03-22T13:57:27.500Z,21.90
2019-03-22T13:59:57.135Z,22.80
2019-03-22T14:02:26.830Z,21.30
2019-03-22T14:04:56.388Z,22.15
2019-03-22T14:07:26.672Z,22.27
2019-03-22T14:09:56.271Z,20.92
2019-03-22T14:12:25.935Z,20.45
2019-03-22T14:14:55.916Z,20.57
2019-03-22T14:17:25.630Z,20.70
2019-03-22T14:19:55.262Z,20.05
2019-03-22T14:22:24.853Z,19.87
2019-03-22T14:24:55.300Z,20.60
2019-03-22T14:27:24.914Z,21.50
2019-03-22T14:29:54.502Z,20.15
2019-03-22T14:32:24.496Z,20.30
2019-03-22T14:34:54.113Z,19.60
2019-03-22T14:37:23.820Z,19.17
2019-03-22T14:39:53.654Z,20.37
2019-03-22T14:42:23.646Z,20.70
2019-03-22T14:44:53.227Z,18.25
2019-03-22T14:47:23.522Z,19.87
2019-03-22T14:49:53.184Z,19.12
2019-03-22T14:52:22.790Z,17.25
2019-03-22T14:54:52.537Z,18.73
2019-03-22T14:57:22.118Z,19.10
2019-03-22T14:59:58.867Z,19.67
2019-03-22T15:02:23.224Z,18.35
2019-03-22T15:04:52.858Z,19.02
2019-03-22T15:07:22.996Z,19.80
2019-03-22T15:09:52.717Z,17.85
2019-03-22T15:12:22.373Z,20.57
2019-03-22T15:15:19.972Z,18.90
2019-03-22T15:18:07.002Z,18.92
2019-03-22T15:20:50.918Z,17.65
2019-03-22T15:23:33.894Z,19.10
2019-03-22T15:26:21.322Z,20.75
2019-03-22T15:29:08.959Z,19.07
2019-03-22T15:32:10.088Z,19.45
2019-03-22T15:34:58.689Z,19.05
2019-03-22T15:37:45.782Z,18.80
2019-03-22T15:40:15.538Z,20.37
2019-03-22T15:42:45.146Z,19.37
2019-03-22T15:47:45.015Z,18.60
2019-03-22T15:50:15.780Z,20.45
2019-03-22T15:52:45.459Z,20.20
2019-03-22T15:55:15.249Z,21.00
2019-03-22T15:57:45.823Z,20.80
2019-03-22T16:00:17.400Z,20.00
2019-03-22T16:02:47.560Z,21.12
2019-03-22T16:05:17.428Z,20.48
2019-03-22T16:07:47.091Z,22.05
2019-03-22T16:10:16.718Z,22.00
2019-03-22T16:12:46.615Z,20.95
2019-03-22T16:15:19.601Z,21.77
2019-03-22T16:17:49.266Z,21.93
2019-03-22T16:20:19.178Z,19.92
2019-03-22T16:22:48.884Z,20.70
2019-03-22T16:25:20.612Z,20.65
2019-03-22T16:27:50.194Z,22.15
2019-03-22T16:30:19.892Z,22.55
2019-03-22T16:32:52.866Z,21.82
2019-03-22T16:35:22.546Z,23.90
2019-03-22T16:37:52.712Z,23.73
2019-03-22T16:40:24.940Z,23.12
2019-03-22T16:42:54.818Z,22.73
2019-03-22T16:45:43.464Z,23.30
2019-03-22T16:48:13.477Z,24.12
2019-03-22T16:50:43.469Z,22.55
2019-03-22T16:53:13.194Z,21.80
2019-03-22T16:55:43.068Z,20.05
2019-03-22T16:58:12.989Z,21.80
2019-03-22T17:00:42.631Z,21.35
2019-03-22T17:03:12.542Z,23.35
2019-03-22T17:05:47.585Z,22.20
2019-03-22T17:08:17.180Z,21.85
2019-03-22T17:10:47.484Z,22.50
2019-03-22T17:13:17.124Z,22.43
2019-03-22T17:15:48.683Z,21.40
2019-03-22T17:18:18.548Z,20.77
2019-03-22T17:20:48.210Z,24.10
2019-03-22T17:23:18.008Z,23.20
2019-03-22T17:25:47.617Z,18.62
2019-03-22T17:28:17.449Z,22.67
2019-03-22T17:30:47.182Z,25.23
2019-03-22T17:33:17.974Z,26.10
2019-03-22T17:35:48.411Z,21.37
2019-03-22T17:38:17.986Z,37.30
2019-03-22T17:40:47.578Z,50.83
2019-03-22T17:43:17.525Z,61.40
2019-03-22T17:45:47.227Z,58.37
2019-03-22T17:48:17.102Z,60.23
2019-03-22T17:50:47.003Z,61.57
2019-03-22T17:53:16.667Z,60.27
2019-03-22T17:55:46.399Z,61.30
2019-03-22T17:58:18.044Z,64.60
2019-03-22T18:00:47.747Z,63.03
2019-03-22T18:03:17.375Z,61.87
2019-03-22T18:05:47.444Z,65.63
2019-03-22T18:08:17.766Z,61.07
2019-03-22T18:10:49.039Z,59.90
2019-03-22T18:13:19.075Z,63.37
2019-03-22T18:15:48.644Z,61.20
2019-03-22T18:18:18.488Z,60.60
2019-03-22T18:20:48.082Z,60.90
2019-03-22T18:23:17.680Z,62.57
2019-03-22T18:25:47.276Z,65.00
2019-03-22T18:28:16.851Z,68.73
2019-03-22T18:30:46.545Z,69.37
2019-03-22T18:33:16.115Z,70.53
2019-03-22T18:35:45.845Z,69.93
2019-03-22T18:38:15.413Z,75.17
2019-03-22T18:40:45.086Z,72.53
2019-03-22T18:43:14.707Z,78.33
2019-03-22T18:45:44.672Z,86.03
2019-03-22T18:48:14.302Z,88.43
2019-03-22T18:50:43.940Z,89.00
2019-03-22T18:53:14.996Z,86.17
2019-03-22T18:55:46.621Z,88.03
2019-03-22T18:58:16.481Z,80.73
2019-03-22T19:00:46.560Z,82.77
2019-03-22T19:03:16.124Z,83.00
2019-03-22T19:05:47.264Z,79.70
2019-03-22T19:08:16.866Z,81.37
2019-03-22T19:10:47.182Z,82.10
2019-03-22T19:13:17.171Z,79.53
2019-03-22T19:15:47.101Z,73.87
2019-03-22T19:18:16.692Z,71.47
2019-03-22T19:20:46.274Z,70.83
2019-03-22T19:23:15.870Z,70.23
2019-03-22T19:25:45.476Z,69.60
2019-03-22T19:28:15.444Z,71.20
2019-03-22T19:30:45.433Z,68.80
2019-03-22T19:33:15.120Z,67.67
2019-03-22T19:35:45.243Z,67.43
2019-03-22T19:38:14.958Z,66.57
2019-03-22T19:40:44.535Z,67.67
2019-03-22T19:43:14.106Z,68.33
2019-03-22T19:45:47.064Z,67.83
2019-03-22T19:48:19.410Z,66.37
2019-03-22T19:50:48.978Z,64.73
2019-03-22T19:53:18.585Z,68.33
2019-03-22T19:55:48.184Z,64.83
2019-03-22T19:58:17.870Z,61.10
2019-03-22T20:00:47.438Z,63.57
2019-03-22T20:03:17.055Z,59.27
2019-03-22T20:05:46.632Z,55.83
2019-03-22T20:08:16.219Z,58.00
2019-03-22T20:10:46.088Z,55.27
2019-03-22T20:13:15.698Z,55.93
2019-03-22T20:15:47.052Z,58.73
2019-03-22T20:18:18.768Z,59.87
2019-03-22T20:20:48.348Z,61.73
2019-03-22T20:23:20.952Z,63.63
2019-03-22T20:25:51.103Z,64.00
2019-03-22T20:28:20.958Z,63.83
2019-03-22T20:30:50.532Z,64.57
2019-03-22T20:33:20.431Z,63.37
2019-03-22T20:35:50.392Z,63.17
2019-03-22T20:38:20.004Z,65.00
2019-03-22T20:40:49.848Z,66.13
2019-03-22T20:43:21.213Z,68.00
2019-03-22T20:45:52.306Z,65.23
2019-03-22T20:48:21.898Z,66.50
2019-03-22T20:50:51.972Z,66.27
2019-03-22T20:53:21.860Z,66.10
2019-03-22T20:55:51.494Z,66.47
2019-03-22T20:58:24.177Z,67.77
2019-03-22T21:00:53.830Z,67.17
2019-03-22T21:03:23.712Z,67.93
2019-03-22T21:05:53.346Z,66.07
2019-03-22T21:08:22.926Z,67.10
2019-03-22T21:10:52.547Z,66.40
2019-03-22T21:13:22.526Z,66.33
2019-03-22T21:15:52.139Z,68.13
2019-03-22T21:18:23.086Z,67.17
2019-03-22T21:20:52.672Z,67.20
2019-03-22T21:23:22.940Z,67.83
2019-03-22T21:25:52.943Z,67.40
2019-03-22T21:28:23.343Z,68.37
2019-03-22T21:30:52.913Z,70.07
2019-03-22T21:33:22.536Z,71.67
2019-03-22T21:35:52.085Z,65.17
2019-03-22T21:38:22.308Z,64.47
2019-03-22T21:40:51.925Z,64.70
2019-03-22T21:43:24.454Z,68.87
2019-03-22T21:45:55.516Z,67.17
2019-03-22T21:48:25.382Z,67.17
2019-03-22T21:50:55.074Z,69.47
2019-03-22T21:53:24.667Z,65.93
2019-03-22T21:55:54.467Z,67.67
2019-03-22T21:58:25.910Z,62.77
2019-03-22T22:00:55.540Z,62.60
2019-03-22T22:03:25.243Z,60.27
2019-03-22T22:05:54.826Z,60.80
2019-03-22T22:08:24.735Z,62.77
2019-03-22T22:10:59.704Z,56.87
2019-03-22T22:13:26.019Z,60.37
2019-03-22T22:15:55.631Z,57.03
2019-03-22T22:18:25.593Z,56.90
2019-03-22T22:20:55.471Z,51.50
2019-03-22T22:23:25.095Z,49.10
2019-03-22T22:25:56.028Z,47.13
2019-03-22T22:28:25.629Z,46.07
2019-03-22T22:30:55.203Z,44.67
2019-03-22T22:33:25.137Z,46.90
2019-03-22T22:35:59.003Z,43.90
2019-03-22T22:38:30.339Z,45.57
2019-03-22T22:41:03.274Z,46.27
2019-03-22T22:43:33.395Z,46.30
2019-03-22T22:46:03.357Z,45.87
2019-03-22T22:48:33.325Z,47.33
2019-03-22T22:51:02.905Z,48.03
2019-03-22T22:53:32.593Z,47.13
2019-03-22T22:56:02.279Z,48.80
2019-03-22T22:58:31.881Z,51.03
2019-03-22T23:01:01.938Z,47.30
2019-03-22T23:03:31.529Z,47.10
2019-03-22T23:06:09.357Z,48.97
2019-03-22T23:08:34.291Z,48.07
2019-03-22T23:11:04.111Z,48.27
2019-03-22T23:13:34.035Z,48.13
2019-03-22T23:16:03.995Z,49.03
2019-03-22T23:18:35.487Z,46.70
2019-03-22T23:21:05.157Z,50.10
2019-03-22T23:23:35.401Z,51.67
2019-03-22T23:26:04.988Z,49.57
2019-03-22T23:28:34.599Z,51.77
2019-03-22T23:31:04.164Z,49.10
2019-03-22T23:33:34.157Z,44.93
2019-03-22T23:36:04.080Z,44.27
2019-03-22T23:38:33.715Z,43.50
2019-03-22T23:41:03.983Z,43.33
2019-03-22T23:43:33.633Z,43.63
2019-03-22T23:46:05.969Z,42.67
2019-03-22T23:48:35.655Z,41.13
2019-03-22T23:51:05.265Z,41.53
2019-03-22T23:53:34.872Z,42.37
2019-03-22T23:56:04.472Z,41.47
2019-03-22T23:58:36.153Z,41.20
